Time;durP1;ratioP1;P1;durP2;ratioP2;P2;SDS_P1;SDS_P2;PMS_P1;PMS_P2;Temp;Humidity;BMP_temperature;BMP_pressure;BME280_temperature;BME280_humidity;BME280_pressure;Samples;Min_cycle;Max_cycle;Signal;HPM_P1;HPM_P2
2021/12/10 19:07:55;;;;;;;178.32;71.82;;;;;;;-1.30;100.00;99440.44;5371011;54;46140;-79
2021/12/10 19:13:06;;;;;;;159.37;64.37;;;;;;;-1.36;100.00;99442.00;5035023;56;1139022;-80
2021/12/10 19:18:16;;;;;;;151.40;62.23;;;;;;;-1.42;100.00;99450.47;4980410;58;1143209;-76
2021/12/10 19:23:27;;;;;;;253.90;146.27;;;;;;;-1.42;100.00;99454.81;4989921;57;1143192;-77
2021/12/10 19:28:42;;;;;;;293.63;140.23;;;;;;;-1.46;100.00;99459.29;5128522;56;1145321;-79
2021/12/10 19:33:52;;;;;;;174.50;70.50;;;;;;;-1.48;100.00;99462.86;5199325;56;1145277;-79
2021/12/10 19:39:03;;;;;;;166.23;64.60;;;;;;;-1.52;100.00;99471.67;5215115;56;1143311;-80
2021/12/10 19:44:17;;;;;;;175.10;61.13;;;;;;;-1.53;100.00;99470.03;5133344;56;1143179;-79
2021/12/10 19:49:29;;;;;;;151.82;56.18;;;;;;;-1.55;100.00;99465.36;5138844;56;1143223;-82
2021/12/10 19:54:41;;;;;;;140.70;52.60;;;;;;;-1.60;100.00;99474.63;5152111;56;1141091;-80
2021/12/10 19:59:52;;;;;;;143.65;54.13;;;;;;;-1.66;100.00;99476.64;5160251;56;1141106;-80
2021/12/10 20:05:08;;;;;;;156.80;62.73;;;;;;;-1.77;100.00;99477.13;5101888;56;1141084;-81
2021/12/10 20:10:33;;;;;;;137.50;56.47;;;;;;;-1.82;100.00;99481.66;5055379;56;1141044;-79
2021/12/10 20:15:52;;;;;;;126.43;51.47;;;;;;;-1.87;100.00;99491.41;5079621;58;1141121;-77
2021/12/10 20:21:02;;;;;;;130.27;50.80;;;;;;;-1.88;100.00;99503.52;5101260;57;1141137;-82
2021/12/10 20:26:15;;;;;;;121.33;50.55;;;;;;;-1.95;100.00;99507.72;5096273;58;1141135;-81
2021/12/10 20:31:43;;;;;;;123.05;50.25;;;;;;;-2.01;100.00;99510.13;5116490;58;21475;-78
2021/12/10 20:36:56;;;;;;;139.30;54.80;;;;;;;-2.03;100.00;99521.47;5105441;57;1139175;-81
2021/12/10 20:42:12;;;;;;;124.50;51.65;;;;;;;-2.01;100.00;99520.50;5115250;57;1143247;-81
2021/12/10 20:47:25;;;;;;;131.00;54.27;;;;;;;-2.02;100.00;99530.92;5095775;57;1143305;-81
2021/12/10 20:52:40;;;;;;;144.47;54.93;;;;;;;-2.09;100.00;99538.09;5082746;58;1143176;-79
2021/12/10 20:57:46;;;;;;;126.23;54.27;;;;;;;-2.10;100.00;99544.63;5042686;57;1143307;-79
2021/12/10 21:02:57;;;;;;;116.43;49.67;;;;;;;-2.19;100.00;99547.16;5045498;58;1143221;-81
2021/12/10 21:08:10;;;;;;;132.77;54.80;;;;;;;-2.19;100.00;99549.30;5045440;57;1143364;-80
2021/12/10 21:13:17;;;;;;;115.13;46.40;;;;;;;-2.25;100.00;99556.02;5045912;58;1143167;-81
2021/12/10 21:18:29;;;;;;;116.20;48.80;;;;;;;-2.29;100.00;99560.92;5097265;56;1143348;-79
2021/12/10 21:23:39;;;;;;;105.50;43.87;;;;;;;-2.34;100.00;99565.46;5182858;57;1143124;-80
2021/12/10 21:29:02;;;;;;;107.03;46.00;;;;;;;-2.36;100.00;99575.48;5177327;57;1143246;-81
2021/12/10 21:34:10;;;;;;;132.50;51.30;;;;;;;-2.36;100.00;99579.38;5169728;57;1143167;-80
2021/12/10 21:39:19;;;;;;;123.70;48.57;;;;;;;-2.35;100.00;99584.49;5183861;57;1143106;-80
2021/12/10 21:44:29;;;;;;;108.03;47.53;;;;;;;-2.31;100.00;99587.36;5194551;56;1143162;-80
2021/12/10 21:49:36;;;;;;;108.27;44.33;;;;;;;-2.29;100.00;99600.25;5192162;57;1143189;-79
2021/12/10 21:54:46;;;;;;;105.78;44.58;;;;;;;-2.33;100.00;99605.99;5182932;56;1143299;-81
2021/12/10 22:00:11;;;;;;;117.33;46.03;;;;;;;-2.37;100.00;99601.83;5194117;56;1143513;-81
2021/12/10 22:05:23;;;;;;;107.13;44.40;;;;;;;-2.37;100.00;99610.89;5089415;57;1141207;-81
2021/12/10 22:10:45;;;;;;;100.30;42.37;;;;;;;-2.38;100.00;99620.02;5046092;58;1141131;-82
2021/12/10 22:16:13;;;;;;;103.63;45.23;;;;;;;-2.40;100.00;99621.36;5140819;57;1141542;-79
2021/12/10 22:21:40;;;;;;;101.07;43.73;;;;;;;-2.41;100.00;99616.24;5140730;57;1141166;-80
2021/12/10 22:26:53;;;;;;;113.90;45.90;;;;;;;-2.39;100.00;99628.68;5056908;58;1143310;-80
2021/12/10 22:32:03;;;;;;;95.90;43.33;;;;;;;-2.32;100.00;99631.44;5057081;57;1143587;-82
2021/12/10 22:37:11;;;;;;;114.50;46.13;;;;;;;-2.31;100.00;99639.14;5043330;58;1141422;-81
2021/12/10 22:42:25;;;;;;;104.75;43.20;;;;;;;-2.36;100.00;99638.92;5189634;56;1143277;-80
2021/12/10 22:47:32;;;;;;;;;;;;;;;-2.42;100.00;99649.05;5191222;56;1143131;-80
2021/12/10 22:52:41;;;;;;;114.97;46.47;;;;;;;-2.45;100.00;99639.30;5135945;57;974211;-81
2021/12/10 22:57:51;;;;;;;117.27;45.87;;;;;;;-2.46;100.00;99640.20;5144452;57;1141148;-79
2021/12/10 23:03:00;;;;;;;100.00;40.57;;;;;;;-2.50;100.00;99639.46;5144727;57;1143182;-81
2021/12/10 23:13:29;;;;;;;105.70;44.50;;;;;;;-2.49;100.00;99657.53;5083967;57;1143284;-80
2021/12/10 23:18:42;;;;;;;98.00;42.27;;;;;;;-2.53;100.00;99662.42;5155587;57;1143184;-80
2021/12/10 23:24:27;;;;;;;92.12;40.83;;;;;;;-2.56;100.00;99674.63;5146970;57;1141091;-81
2021/12/10 23:29:37;;;;;;;98.62;40.70;;;;;;;-2.58;100.00;99681.16;5155691;57;1141307;-80
2021/12/10 23:34:48;;;;;;;114.50;46.13;;;;;;;-2.66;100.00;99682.35;5152807;57;1141442;-81
2021/12/10 23:40:01;;;;;;;103.37;43.70;;;;;;;-2.69;100.00;99686.34;5144334;57;1143208;-81
2021/12/10 23:45:23;;;;;;;100.82;39.08;;;;;;;-2.75;100.00;99682.70;5144534;57;1143232;-81
2021/12/10 23:50:45;;;;;;;91.67;38.50;;;;;;;-2.79;100.00;99703.12;5119429;57;1141125;-79
2021/12/10 23:55:56;;;;;;;101.83;39.30;;;;;;;-2.82;100.00;99705.36;5146804;57;1139421;-81
